sensor_id;sensor_type;location;lat;lon;timestamp;pressure;altitude;pressure_sealevel;temperature;humidity
75290;BME280;63883;48.996;20.804;2023-02-15T00:01:26;98170.97;;;-5.12;95.89
75290;BME280;63883;48.996;20.804;2023-02-15T00:03:52;98176.88;;;-5.10;96.37
75290;BME280;63883;48.996;20.804;2023-02-15T00:06:17;98167.69;;;-5.11;96.33
75290;BME280;63883;48.996;20.804;2023-02-15T00:08:44;98170.78;;;-5.15;95.81
75290;BME280;63883;48.996;20.804;2023-02-15T00:11:15;98168.91;;;-5.19;95.72
75290;BME280;63883;48.996;20.804;2023-02-15T00:13:41;98169.31;;;-5.26;96.20
75290;BME280;63883;48.996;20.804;2023-02-15T00:16:10;98168.25;;;-5.30;96.12
75290;BME280;63883;48.996;20.804;2023-02-15T00:18:37;98166.41;;;-5.32;95.86
75290;BME280;63883;48.996;20.804;2023-02-15T00:21:08;98162.25;;;-5.33;96.66
75290;BME280;63883;48.996;20.804;2023-02-15T00:23:35;98161.38;;;-5.34;96.40
75290;BME280;63883;48.996;20.804;2023-02-15T00:26:11;98160.22;;;-5.39;96.13
75290;BME280;63883;48.996;20.804;2023-02-15T00:28:38;98166.66;;;-5.42;96.24
75290;BME280;63883;48.996;20.804;2023-02-15T00:31:11;98154.81;;;-5.46;96.27
75290;BME280;63883;48.996;20.804;2023-02-15T00:33:38;98156.53;;;-5.45;96.00
75290;BME280;63883;48.996;20.804;2023-02-15T00:36:06;98154.03;;;-5.45;96.31
75290;BME280;63883;48.996;20.804;2023-02-15T00:38:33;98158.44;;;-5.41;97.05
75290;BME280;63883;48.996;20.804;2023-02-15T00:41:01;98159.56;;;-5.36;96.97
75290;BME280;63883;48.996;20.804;2023-02-15T00:43:28;98152.88;;;-5.37;96.95
75290;BME280;63883;48.996;20.804;2023-02-15T00:45:54;98152.97;;;-5.36;96.73
75290;BME280;63883;48.996;20.804;2023-02-15T00:48:20;98145.41;;;-5.37;96.73
75290;BME280;63883;48.996;20.804;2023-02-15T00:50:49;98137.19;;;-5.36;97.01
75290;BME280;63883;48.996;20.804;2023-02-15T00:53:15;98142.38;;;-5.33;97.25
75290;BME280;63883;48.996;20.804;2023-02-15T00:55:41;98143.13;;;-5.34;96.83
75290;BME280;63883;48.996;20.804;2023-02-15T00:58:08;98132.78;;;-5.27;97.12
75290;BME280;63883;48.996;20.804;2023-02-15T01:00:35;98135.16;;;-5.29;96.95
75290;BME280;63883;48.996;20.804;2023-02-15T01:03:01;98137.44;;;-5.32;97.13
75290;BME280;63883;48.996;20.804;2023-02-15T01:05:27;98134.19;;;-5.31;97.35
75290;BME280;63883;48.996;20.804;2023-02-15T01:07:55;98137.44;;;-5.32;96.92
75290;BME280;63883;48.996;20.804;2023-02-15T01:10:21;98131.47;;;-5.35;96.75
75290;BME280;63883;48.996;20.804;2023-02-15T01:12:47;98131.47;;;-5.35;97.24
75290;BME280;63883;48.996;20.804;2023-02-15T01:15:13;98133.75;;;-5.38;96.97
75290;BME280;63883;48.996;20.804;2023-02-15T01:17:39;98134.50;;;-5.39;97.20
75290;BME280;63883;48.996;20.804;2023-02-15T01:20:05;98132.81;;;-5.40;96.70
75290;BME280;63883;48.996;20.804;2023-02-15T01:22:32;98125.28;;;-5.42;96.69
75290;BME280;63883;48.996;20.804;2023-02-15T01:24:58;98133.66;;;-5.40;97.02
75290;BME280;63883;48.996;20.804;2023-02-15T01:27:24;98118.28;;;-5.34;97.38
75290;BME280;63883;48.996;20.804;2023-02-15T01:29:49;98125.13;;;-5.30;97.30
75290;BME280;63883;48.996;20.804;2023-02-15T01:32:15;98122.81;;;-5.27;97.68
75290;BME280;63883;48.996;20.804;2023-02-15T01:34:40;98121.09;;;-5.28;97.38
75290;BME280;63883;48.996;20.804;2023-02-15T01:37:06;98112.69;;;-5.30;97.14
75290;BME280;63883;48.996;20.804;2023-02-15T01:39:32;98125.72;;;-5.34;97.41
75290;BME280;63883;48.996;20.804;2023-02-15T01:41:58;98114.63;;;-5.39;97.22
75290;BME280;63883;48.996;20.804;2023-02-15T01:44:46;98113.28;;;-5.34;97.50
75290;BME280;63883;48.996;20.804;2023-02-15T01:47:19;98117.66;;;-5.30;97.38
75290;BME280;63883;48.996;20.804;2023-02-15T01:50:00;98122.22;;;-5.23;97.87
75290;BME280;63883;48.996;20.804;2023-02-15T01:52:27;98118.03;;;-5.09;97.52
75290;BME280;63883;48.996;20.804;2023-02-15T01:54:54;98110.34;;;-4.99;97.78
75290;BME280;63883;48.996;20.804;2023-02-15T01:57:22;98116.03;;;-4.87;98.00
75290;BME280;63883;48.996;20.804;2023-02-15T01:59:53;98111.56;;;-4.78;97.85
75290;BME280;63883;48.996;20.804;2023-02-15T02:02:20;98117.94;;;-4.68;97.19
75290;BME280;63883;48.996;20.804;2023-02-15T02:04:51;98115.94;;;-4.59;97.50
75290;BME280;63883;48.996;20.804;2023-02-15T02:07:24;98101.72;;;-4.47;97.36
75290;BME280;63883;48.996;20.804;2023-02-15T02:09:51;98107.94;;;-4.39;96.70
75290;BME280;63883;48.996;20.804;2023-02-15T02:12:18;98105.97;;;-4.30;96.80
75290;BME280;63883;48.996;20.804;2023-02-15T02:14:46;98100.53;;;-4.23;96.15
75290;BME280;63883;48.996;20.804;2023-02-15T02:23:01;98097.97;;;-3.94;96.23
75290;BME280;63883;48.996;20.804;2023-02-15T02:33:40;98089.00;;;-3.59;95.70
75290;BME280;63883;48.996;20.804;2023-02-15T02:36:24;98090.09;;;-3.54;95.62
75290;BME280;63883;48.996;20.804;2023-02-15T02:38:56;98097.81;;;-3.49;96.03
75290;BME280;63883;48.996;20.804;2023-02-15T02:44:43;98096.97;;;-3.34;95.94
75290;BME280;63883;48.996;20.804;2023-02-15T02:47:13;98097.44;;;-3.25;94.92
75290;BME280;63883;48.996;20.804;2023-02-15T02:49:42;98100.00;;;-3.23;94.90
75290;BME280;63883;48.996;20.804;2023-02-15T03:00:20;98101.88;;;-3.19;94.09
75290;BME280;63883;48.996;20.804;2023-02-15T03:02:49;98101.97;;;-3.18;94.42
75290;BME280;63883;48.996;20.804;2023-02-15T03:05:21;98104.59;;;-3.15;94.65
75290;BME280;63883;48.996;20.804;2023-02-15T03:07:50;98104.88;;;-3.08;94.66
75290;BME280;63883;48.996;20.804;2023-02-15T03:10:20;98098.34;;;-3.06;94.65
75290;BME280;63883;48.996;20.804;2023-02-15T03:12:48;98096.03;;;-3.03;94.45
75290;BME280;63883;48.996;20.804;2023-02-15T03:15:23;98094.81;;;-2.94;94.48
75290;BME280;63883;48.996;20.804;2023-02-15T03:17:55;98093.56;;;-2.86;94.51
75290;BME280;63883;48.996;20.804;2023-02-15T03:20:22;98087.88;;;-2.83;94.16
75290;BME280;63883;48.996;20.804;2023-02-15T03:23:03;98091.59;;;-2.75;94.63
75290;BME280;63883;48.996;20.804;2023-02-15T03:25:36;98091.72;;;-2.72;94.11
75290;BME280;63883;48.996;20.804;2023-02-15T03:28:09;98097.75;;;-2.68;94.35
75290;BME280;63883;48.996;20.804;2023-02-15T03:30:39;98090.34;;;-2.67;94.14
75290;BME280;63883;48.996;20.804;2023-02-15T03:33:08;98092.88;;;-2.65;93.74
75290;BME280;63883;48.996;20.804;2023-02-15T03:36:01;98094.59;;;-2.64;93.23
75290;BME280;63883;48.996;20.804;2023-02-15T03:38:46;98091.16;;;-2.66;93.21
75290;BME280;63883;48.996;20.804;2023-02-15T03:41:16;98086.13;;;-2.68;92.72
75290;BME280;63883;48.996;20.804;2023-02-15T03:46:17;98087.19;;;-2.63;93.24
75290;BME280;63883;48.996;20.804;2023-02-15T03:48:51;98080.41;;;-2.65;92.45
75290;BME280;63883;48.996;20.804;2023-02-15T03:51:20;98079.31;;;-2.70;93.27
75290;BME280;63883;48.996;20.804;2023-02-15T03:54:18;98086.81;;;-2.70;92.88
75290;BME280;63883;48.996;20.804;2023-02-15T03:57:07;98086.25;;;-2.65;93.38
75290;BME280;63883;48.996;20.804;2023-02-15T03:59:52;98081.25;;;-2.65;92.94
75290;BME280;63883;48.996;20.804;2023-02-15T04:02:41;98083.06;;;-2.62;93.59
75290;BME280;63883;48.996;20.804;2023-02-15T04:05:09;98082.34;;;-2.60;93.28
75290;BME280;63883;48.996;20.804;2023-02-15T04:07:35;98080.16;;;-2.54;93.37
75290;BME280;63883;48.996;20.804;2023-02-15T04:10:01;98076.00;;;-2.53;93.21
75290;BME280;63883;48.996;20.804;2023-02-15T04:12:45;98076.00;;;-2.53;93.15
75290;BME280;63883;48.996;20.804;2023-02-15T04:15:13;98072.78;;;-2.51;93.59
75290;BME280;63883;48.996;20.804;2023-02-15T04:17:58;98072.94;;;-2.48;93.81
75290;BME280;63883;48.996;20.804;2023-02-15T04:20:23;98072.22;;;-2.45;93.34
75290;BME280;63883;48.996;20.804;2023-02-15T04:23:07;98062.38;;;-2.42;93.26
75290;BME280;63883;48.996;20.804;2023-02-15T04:25:51;98071.75;;;-2.38;93.52
75290;BME280;63883;48.996;20.804;2023-02-15T04:28:17;98070.91;;;-2.37;93.07
75290;BME280;63883;48.996;20.804;2023-02-15T04:30:43;98063.59;;;-2.34;93.29
75290;BME280;63883;48.996;20.804;2023-02-15T04:33:09;98077.72;;;-2.34;93.03
75290;BME280;63883;48.996;20.804;2023-02-15T04:35:35;98079.56;;;-2.30;93.25
75290;BME280;63883;48.996;20.804;2023-02-15T04:38:00;98072.06;;;-2.30;92.89
75290;BME280;63883;48.996;20.804;2023-02-15T04:40:26;98071.09;;;-2.34;92.73
75290;BME280;63883;48.996;20.804;2023-02-15T04:42:52;98085.06;;;-2.38;92.87
75290;BME280;63883;48.996;20.804;2023-02-15T04:45:17;98072.44;;;-2.41;92.61
75290;BME280;63883;48.996;20.804;2023-02-15T04:47:44;98080.06;;;-2.38;92.99
75290;BME280;63883;48.996;20.804;2023-02-15T04:50:10;98086.94;;;-2.33;92.75
75290;BME280;63883;48.996;20.804;2023-02-15T04:52:36;98086.22;;;-2.31;92.62
75290;BME280;63883;48.996;20.804;2023-02-15T04:55:02;98090.50;;;-2.28;92.69
75290;BME280;63883;48.996;20.804;2023-02-15T04:57:28;98089.72;;;-2.27;92.50
75290;BME280;63883;48.996;20.804;2023-02-15T04:59:53;98090.56;;;-2.27;92.66
75290;BME280;63883;48.996;20.804;2023-02-15T05:02:19;98094.09;;;-2.23;92.84
75290;BME280;63883;48.996;20.804;2023-02-15T05:04:45;98087.50;;;-2.21;93.00
75290;BME280;63883;48.996;20.804;2023-02-15T05:07:11;98090.13;;;-2.18;92.74
75290;BME280;63883;48.996;20.804;2023-02-15T05:09:36;98087.75;;;-2.15;92.66
75290;BME280;63883;48.996;20.804;2023-02-15T05:12:02;98090.34;;;-2.14;92.80
75290;BME280;63883;48.996;20.804;2023-02-15T05:14:28;98085.69;;;-2.06;92.77
75290;BME280;63883;48.996;20.804;2023-02-15T05:16:53;98090.06;;;-2.02;92.97
75290;BME280;63883;48.996;20.804;2023-02-15T05:19:19;98082.69;;;-1.99;92.87
75290;BME280;63883;48.996;20.804;2023-02-15T05:21:45;98086.31;;;-1.92;92.88
75290;BME280;63883;48.996;20.804;2023-02-15T05:24:11;98093.03;;;-1.91;93.12
75290;BME280;63883;48.996;20.804;2023-02-15T05:26:55;98093.13;;;-1.90;93.33
75290;BME280;63883;48.996;20.804;2023-02-15T05:29:39;98097.34;;;-1.89;92.95
75290;BME280;63883;48.996;20.804;2023-02-15T05:32:05;98099.84;;;-1.89;92.96
75290;BME280;63883;48.996;20.804;2023-02-15T05:34:30;98094.97;;;-1.86;92.84
75290;BME280;63883;48.996;20.804;2023-02-15T05:36:56;98102.44;;;-1.86;93.16
75290;BME280;63883;48.996;20.804;2023-02-15T05:39:22;98101.75;;;-1.83;93.04
75290;BME280;63883;48.996;20.804;2023-02-15T05:41:48;98105.88;;;-1.84;92.74
75290;BME280;63883;48.996;20.804;2023-02-15T05:44:13;98109.31;;;-1.82;92.49
75290;BME280;63883;48.996;20.804;2023-02-15T05:46:39;98104.31;;;-1.82;92.51
75290;BME280;63883;48.996;20.804;2023-02-15T05:49:05;98123.59;;;-1.79;92.19
75290;BME280;63883;48.996;20.804;2023-02-15T05:51:31;98111.94;;;-1.79;92.51
75290;BME280;63883;48.996;20.804;2023-02-15T05:53:57;98115.09;;;-1.83;91.85
75290;BME280;63883;48.996;20.804;2023-02-15T05:56:23;98120.03;;;-1.84;92.33
75290;BME280;63883;48.996;20.804;2023-02-15T05:58:48;98125.88;;;-1.84;92.19
75290;BME280;63883;48.996;20.804;2023-02-15T06:01:16;98116.59;;;-1.86;91.92
75290;BME280;63883;48.996;20.804;2023-02-15T06:03:43;98131.56;;;-1.88;92.10
75290;BME280;63883;48.996;20.804;2023-02-15T06:06:09;98127.41;;;-1.87;92.34
75290;BME280;63883;48.996;20.804;2023-02-15T06:08:36;98119.97;;;-1.86;92.21
75290;BME280;63883;48.996;20.804;2023-02-15T06:11:03;98120.97;;;-1.82;92.71
75290;BME280;63883;48.996;20.804;2023-02-15T06:13:29;98124.44;;;-1.79;92.81
75290;BME280;63883;48.996;20.804;2023-02-15T06:15:55;98122.72;;;-1.80;92.60
75290;BME280;63883;48.996;20.804;2023-02-15T06:18:21;98124.44;;;-1.79;92.45
75290;BME280;63883;48.996;20.804;2023-02-15T06:20:47;98127.88;;;-1.77;92.67
75290;BME280;63883;48.996;20.804;2023-02-15T06:23:13;98126.41;;;-1.73;92.72
75290;BME280;63883;48.996;20.804;2023-02-15T06:25:39;98121.66;;;-1.67;92.77
75290;BME280;63883;48.996;20.804;2023-02-15T06:28:04;98120.13;;;-1.64;92.74
75290;BME280;63883;48.996;20.804;2023-02-15T06:30:31;98121.06;;;-1.62;92.92
75290;BME280;63883;48.996;20.804;2023-02-15T06:32:57;98126.28;;;-1.57;92.49
75290;BME280;63883;48.996;20.804;2023-02-15T06:35:22;98125.56;;;-1.54;92.50
75290;BME280;63883;48.996;20.804;2023-02-15T06:37:48;98124.84;;;-1.52;92.72
75290;BME280;63883;48.996;20.804;2023-02-15T06:40:14;98128.31;;;-1.48;93.05
75290;BME280;63883;48.996;20.804;2023-02-15T06:42:41;98133.53;;;-1.44;92.58
75290;BME280;63883;48.996;20.804;2023-02-15T06:45:07;98130.31;;;-1.41;92.36
75290;BME280;63883;48.996;20.804;2023-02-15T06:47:33;98134.38;;;-1.43;92.45
75290;BME280;63883;48.996;20.804;2023-02-15T06:49:59;98137.81;;;-1.41;92.72
75290;BME280;63883;48.996;20.804;2023-02-15T06:52:25;98140.31;;;-1.41;92.49
75290;BME280;63883;48.996;20.804;2023-02-15T06:54:51;98132.69;;;-1.44;92.78
75290;BME280;63883;48.996;20.804;2023-02-15T06:57:17;98132.69;;;-1.44;92.74
75290;BME280;63883;48.996;20.804;2023-02-15T06:59:43;98133.53;;;-1.44;93.42
75290;BME280;63883;48.996;20.804;2023-02-15T07:02:12;98126.94;;;-1.42;93.14
75290;BME280;63883;48.996;20.804;2023-02-15T07:04:38;98128.94;;;-1.35;93.37
75290;BME280;63883;48.996;20.804;2023-02-15T07:07:04;98128.75;;;-1.20;93.48
75290;BME280;63883;48.996;20.804;2023-02-15T07:09:33;98128.22;;;-1.13;92.83
75290;BME280;63883;48.996;20.804;2023-02-15T07:11:58;98128.16;;;-1.14;92.31
75290;BME280;63883;48.996;20.804;2023-02-15T07:14:42;98126.25;;;-1.20;92.83
75290;BME280;63883;48.996;20.804;2023-02-15T07:17:08;98138.75;;;-1.20;92.66
75290;BME280;63883;48.996;20.804;2023-02-15T07:19:34;98128.97;;;-1.15;92.76
75290;BME280;63883;48.996;20.804;2023-02-15T07:21:59;98135.81;;;-1.11;92.53
75290;BME280;63883;48.996;20.804;2023-02-15T07:24:25;98130.78;;;-1.11;91.96
75290;BME280;63883;48.996;20.804;2023-02-15T07:26:51;98128.47;;;-1.07;92.43
75290;BME280;63883;48.996;20.804;2023-02-15T07:29:17;98127.94;;;-1.00;92.28
75290;BME280;63883;48.996;20.804;2023-02-15T07:31:43;98123.50;;;-0.86;91.44
75290;BME280;63883;48.996;20.804;2023-02-15T07:34:11;98125.56;;;-0.77;91.63
75290;BME280;63883;48.996;20.804;2023-02-15T07:36:37;98116.53;;;-0.74;90.90
75290;BME280;63883;48.996;20.804;2023-02-15T07:39:03;98121.63;;;-0.72;90.82
75290;BME280;63883;48.996;20.804;2023-02-15T07:41:28;98121.53;;;-0.74;91.11
75290;BME280;63883;48.996;20.804;2023-02-15T07:43:54;98122.91;;;-0.61;90.77
75290;BME280;63883;48.996;20.804;2023-02-15T07:46:20;98119.84;;;-0.54;90.06
75290;BME280;63883;48.996;20.804;2023-02-15T07:48:46;98103.88;;;-0.56;89.38
75290;BME280;63883;48.996;20.804;2023-02-15T07:51:12;98111.91;;;-0.65;89.88
75290;BME280;63883;48.996;20.804;2023-02-15T07:53:40;98109.59;;;-0.60;89.94
75290;BME280;63883;48.996;20.804;2023-02-15T07:56:09;98105.06;;;-0.48;89.94
75290;BME280;63883;48.996;20.804;2023-02-15T07:58:36;98109.66;;;-0.38;88.99
75290;BME280;63883;48.996;20.804;2023-02-15T08:03:48;98095.97;;;-0.03;87.07
75290;BME280;63883;48.996;20.804;2023-02-15T08:06:14;98100.69;;;-0.11;86.29
75290;BME280;63883;48.996;20.804;2023-02-15T08:08:41;98092.81;;;-0.20;86.18
75290;BME280;63883;48.996;20.804;2023-02-15T08:11:21;98093.94;;;-0.34;86.41
75290;BME280;63883;48.996;20.804;2023-02-15T08:13:56;98091.91;;;-0.43;87.11
75290;BME280;63883;48.996;20.804;2023-02-15T08:18:54;98083.41;;;-0.25;87.21
75290;BME280;63883;48.996;20.804;2023-02-15T08:21:20;98087.00;;;-0.19;86.88
75290;BME280;63883;48.996;20.804;2023-02-15T08:23:47;98084.09;;;-0.07;86.92
75290;BME280;63883;48.996;20.804;2023-02-15T08:26:13;98086.69;;;-0.06;85.99
75290;BME280;63883;48.996;20.804;2023-02-15T08:28:40;98086.09;;;0.00;85.96
75290;BME280;63883;48.996;20.804;2023-02-15T08:31:07;98080.88;;;0.18;85.79
75290;BME280;63883;48.996;20.804;2023-02-15T08:33:35;98082.03;;;0.26;85.14
75290;BME280;63883;48.996;20.804;2023-02-15T08:36:10;98081.81;;;0.20;84.44
75290;BME280;63883;48.996;20.804;2023-02-15T08:38:36;98083.03;;;0.09;84.35
75290;BME280;63883;48.996;20.804;2023-02-15T08:41:29;98078.25;;;0.15;85.05
75290;BME280;63883;48.996;20.804;2023-02-15T08:43:58;98081.91;;;0.23;84.58
75290;BME280;63883;48.996;20.804;2023-02-15T08:46:26;98077.44;;;0.38;83.51
75290;BME280;63883;48.996;20.804;2023-02-15T08:48:53;98065.38;;;0.50;82.80
75290;BME280;63883;48.996;20.804;2023-02-15T08:51:24;98073.13;;;0.58;82.86
75290;BME280;63883;48.996;20.804;2023-02-15T08:53:55;98067.56;;;0.65;82.90
75290;BME280;63883;48.996;20.804;2023-02-15T08:56:23;98071.66;;;0.63;82.56
75290;BME280;63883;48.996;20.804;2023-02-15T08:58:50;98072.63;;;0.66;81.81
75290;BME280;63883;48.996;20.804;2023-02-15T09:01:17;98069.44;;;0.70;81.00
75290;BME280;63883;48.996;20.804;2023-02-15T09:03:46;98063.97;;;0.58;81.75
75290;BME280;63883;48.996;20.804;2023-02-15T09:06:12;98066.72;;;0.64;82.25
75290;BME280;63883;48.996;20.804;2023-02-15T09:08:38;98060.84;;;0.64;82.21
75290;BME280;63883;48.996;20.804;2023-02-15T09:11:16;98059.97;;;0.63;82.42
75290;BME280;63883;48.996;20.804;2023-02-15T09:13:49;98059.19;;;0.64;82.47
75290;BME280;63883;48.996;20.804;2023-02-15T09:16:15;98056.09;;;0.71;82.17
75290;BME280;63883;48.996;20.804;2023-02-15T09:18:44;98062.97;;;0.77;81.75
75290;BME280;63883;48.996;20.804;2023-02-15T09:21:12;98053.56;;;0.71;81.83
75290;BME280;63883;48.996;20.804;2023-02-15T09:23:42;98052.34;;;0.84;81.19
75290;BME280;63883;48.996;20.804;2023-02-15T09:26:11;98049.09;;;0.88;80.94
75290;BME280;63883;48.996;20.804;2023-02-15T09:28:37;98045.16;;;0.95;81.05
75290;BME280;63883;48.996;20.804;2023-02-15T09:31:07;98049.97;;;0.89;79.87
75290;BME280;63883;48.996;20.804;2023-02-15T09:33:34;98048.25;;;0.88;80.16
75290;BME280;63883;48.996;20.804;2023-02-15T09:36:00;98054.03;;;0.85;80.86
75290;BME280;63883;48.996;20.804;2023-02-15T09:38:26;98040.13;;;0.95;80.58
75290;BME280;63883;48.996;20.804;2023-02-15T09:43:46;98044.41;;;0.97;79.89
75290;BME280;63883;48.996;20.804;2023-02-15T09:48:53;98046.00;;;0.95;80.15
75290;BME280;63883;48.996;20.804;2023-02-15T09:56:53;98026.59;;;1.15;79.52
75290;BME280;63883;48.996;20.804;2023-02-15T10:02:27;98036.13;;;1.25;78.75
75290;BME280;63883;48.996;20.804;2023-02-15T10:05:21;98026.25;;;1.30;79.07
75290;BME280;63883;48.996;20.804;2023-02-15T10:10:57;98022.19;;;1.35;78.35
75290;BME280;63883;48.996;20.804;2023-02-15T10:13:54;98028.34;;;1.44;77.62
75290;BME280;63883;48.996;20.804;2023-02-15T10:16:46;98021.22;;;1.56;77.13
75290;BME280;63883;48.996;20.804;2023-02-15T10:22:17;98014.97;;;1.99;75.86
75290;BME280;63883;48.996;20.804;2023-02-15T10:27:22;98022.84;;;2.11;75.19
75290;BME280;63883;48.996;20.804;2023-02-15T10:30:10;98014.06;;;2.57;73.76
75290;BME280;63883;48.996;20.804;2023-02-15T10:35:54;98013.91;;;3.15;69.84
75290;BME280;63883;48.996;20.804;2023-02-15T10:44:50;98012.53;;;4.85;64.91
75290;BME280;63883;48.996;20.804;2023-02-15T10:57:34;97988.56;;;8.13;52.98
75290;BME280;63883;48.996;20.804;2023-02-15T11:00:26;97985.94;;;6.92;55.72
75290;BME280;63883;48.996;20.804;2023-02-15T11:06:18;97971.44;;;6.78;55.64
75290;BME280;63883;48.996;20.804;2023-02-15T11:08:52;97971.88;;;7.25;54.73
75290;BME280;63883;48.996;20.804;2023-02-15T11:11:37;97964.13;;;8.38;51.90
75290;BME280;63883;48.996;20.804;2023-02-15T11:14:15;97963.34;;;8.67;50.75
75290;BME280;63883;48.996;20.804;2023-02-15T11:16:46;97957.34;;;8.37;50.43
75290;BME280;63883;48.996;20.804;2023-02-15T11:21:49;97952.03;;;7.93;52.28
75290;BME280;63883;48.996;20.804;2023-02-15T11:24:20;97953.69;;;7.83;51.71
75290;BME280;63883;48.996;20.804;2023-02-15T11:26:51;97935.97;;;7.99;52.02
75290;BME280;63883;48.996;20.804;2023-02-15T11:32:19;97939.41;;;8.11;51.28
75290;BME280;63883;48.996;20.804;2023-02-15T11:35:45;97935.25;;;8.26;51.20
75290;BME280;63883;48.996;20.804;2023-02-15T11:42:53;97920.16;;;9.09;47.62
75290;BME280;63883;48.996;20.804;2023-02-15T11:47:46;97910.78;;;9.60;47.03
75290;BME280;63883;48.996;20.804;2023-02-15T11:50:16;97909.09;;;9.59;46.72
75290;BME280;63883;48.996;20.804;2023-02-15T11:52:44;97903.91;;;9.98;46.77
75290;BME280;63883;48.996;20.804;2023-02-15T11:55:16;97903.78;;;10.32;44.98
75290;BME280;63883;48.996;20.804;2023-02-15T11:57:47;97902.81;;;10.57;44.96
75290;BME280;63883;48.996;20.804;2023-02-15T12:00:35;97893.41;;;10.64;44.76
75290;BME280;63883;48.996;20.804;2023-02-15T12:03:21;97887.19;;;11.00;43.90
75290;BME280;63883;48.996;20.804;2023-02-15T12:05:53;97884.47;;;11.21;43.15
75290;BME280;63883;48.996;20.804;2023-02-15T12:08:22;97882.94;;;11.02;42.66
75290;BME280;63883;48.996;20.804;2023-02-15T12:10:58;97881.97;;;11.10;42.84
75290;BME280;63883;48.996;20.804;2023-02-15T12:13:26;97876.78;;;11.21;42.49
75290;BME280;63883;48.996;20.804;2023-02-15T12:15:57;97869.69;;;11.52;41.78
75290;BME280;63883;48.996;20.804;2023-02-15T12:18:37;97867.78;;;11.69;41.12
75290;BME280;63883;48.996;20.804;2023-02-15T12:21:31;97862.06;;;11.47;41.91
75290;BME280;63883;48.996;20.804;2023-02-15T12:24:18;97863.75;;;11.50;42.58
75290;BME280;63883;48.996;20.804;2023-02-15T12:26:55;97860.25;;;11.57;42.13
75290;BME280;63883;48.996;20.804;2023-02-15T12:29:26;97862.06;;;12.24;41.33
75290;BME280;63883;48.996;20.804;2023-02-15T12:31:53;97847.75;;;12.69;39.20
75290;BME280;63883;48.996;20.804;2023-02-15T12:34:23;97846.94;;;12.05;40.16
75290;BME280;63883;48.996;20.804;2023-02-15T12:36:56;97850.91;;;11.57;41.69
75290;BME280;63883;48.996;20.804;2023-02-15T12:39:27;97848.72;;;12.00;40.65
75290;BME280;63883;48.996;20.804;2023-02-15T12:44:25;97841.59;;;11.50;41.91
75290;BME280;63883;48.996;20.804;2023-02-15T12:49:34;97837.63;;;12.03;40.85
75290;BME280;63883;48.996;20.804;2023-02-15T12:52:02;97826.34;;;12.74;38.89
75290;BME280;63883;48.996;20.804;2023-02-15T12:56:57;97815.84;;;13.40;37.23
75290;BME280;63883;48.996;20.804;2023-02-15T12:59:24;97819.63;;;13.67;37.10
75290;BME280;63883;48.996;20.804;2023-02-15T13:01:52;97812.22;;;13.93;36.39
75290;BME280;63883;48.996;20.804;2023-02-15T13:04:29;97815.03;;;14.23;35.83
75290;BME280;63883;48.996;20.804;2023-02-15T13:06:58;97808.72;;;14.36;35.84
75290;BME280;63883;48.996;20.804;2023-02-15T13:12:11;97801.13;;;14.33;35.48
75290;BME280;63883;48.996;20.804;2023-02-15T13:14:44;97796.91;;;14.67;34.79
75290;BME280;63883;48.996;20.804;2023-02-15T13:17:11;97791.59;;;14.39;34.50
75290;BME280;63883;48.996;20.804;2023-02-15T13:19:45;97788.53;;;14.21;35.20
75290;BME280;63883;48.996;20.804;2023-02-15T13:22:19;97791.25;;;14.55;34.41
75290;BME280;63883;48.996;20.804;2023-02-15T13:24:48;97786.72;;;14.64;34.16
75290;BME280;63883;48.996;20.804;2023-02-15T13:27:18;97778.59;;;14.81;33.74
75290;BME280;63883;48.996;20.804;2023-02-15T13:29:51;97784.69;;;14.77;33.94
75290;BME280;63883;48.996;20.804;2023-02-15T13:32:33;97775.88;;;14.53;34.23
75290;BME280;63883;48.996;20.804;2023-02-15T13:35:03;97776.69;;;14.89;34.30
75290;BME280;63883;48.996;20.804;2023-02-15T13:45:52;97779.09;;;15.28;32.93
75290;BME280;63883;48.996;20.804;2023-02-15T13:48:25;97766.22;;;15.29;32.02
75290;BME280;63883;48.996;20.804;2023-02-15T13:59:38;97768.84;;;14.21;35.01
75290;BME280;63883;48.996;20.804;2023-02-15T14:07:59;97764.84;;;14.83;33.16
75290;BME280;63883;48.996;20.804;2023-02-15T14:10:44;97764.59;;;14.93;33.06
75290;BME280;63883;48.996;20.804;2023-02-15T14:29:23;97753.56;;;12.89;37.00
75290;BME280;63883;48.996;20.804;2023-02-15T14:31:57;97747.91;;;12.69;37.14
75290;BME280;63883;48.996;20.804;2023-02-15T14:34:30;97747.53;;;12.41;37.69
75290;BME280;63883;48.996;20.804;2023-02-15T14:36:57;97746.25;;;12.11;38.30
75290;BME280;63883;48.996;20.804;2023-02-15T14:42:30;97741.44;;;12.46;37.82
75290;BME280;63883;48.996;20.804;2023-02-15T14:45:21;97741.66;;;12.86;36.63
75290;BME280;63883;48.996;20.804;2023-02-15T14:48:12;97738.59;;;13.15;36.33
75290;BME280;63883;48.996;20.804;2023-02-15T14:50:44;97735.81;;;13.26;36.18
75290;BME280;63883;48.996;20.804;2023-02-15T14:56:05;97737.84;;;12.60;37.55
75290;BME280;63883;48.996;20.804;2023-02-15T14:58:32;97744.81;;;12.51;37.61
75290;BME280;63883;48.996;20.804;2023-02-15T15:01:11;97742.16;;;12.02;38.50
75290;BME280;63883;48.996;20.804;2023-02-15T15:03:43;97740.09;;;11.60;39.56
75290;BME280;63883;48.996;20.804;2023-02-15T15:06:28;97737.88;;;11.35;40.26
75290;BME280;63883;48.996;20.804;2023-02-15T15:09:48;97741.69;;;10.95;41.71
75290;BME280;63883;48.996;20.804;2023-02-15T15:14:43;97740.09;;;9.69;44.23
75290;BME280;63883;48.996;20.804;2023-02-15T15:20:14;97737.88;;;8.63;46.78
75290;BME280;63883;48.996;20.804;2023-02-15T15:34:20;97743.13;;;4.96;58.71
75290;BME280;63883;48.996;20.804;2023-02-15T15:40:06;97750.94;;;3.57;63.80
75290;BME280;63883;48.996;20.804;2023-02-15T15:48:35;97744.41;;;2.12;69.38
75290;BME280;63883;48.996;20.804;2023-02-15T15:51:10;97753.84;;;1.87;70.42
75290;BME280;63883;48.996;20.804;2023-02-15T15:53:42;97754.09;;;1.64;71.61
75290;BME280;63883;48.996;20.804;2023-02-15T15:56:15;97753.34;;;1.36;72.52
75290;BME280;63883;48.996;20.804;2023-02-15T15:58:46;97754.38;;;1.13;73.61
75290;BME280;63883;48.996;20.804;2023-02-15T16:01:13;97758.00;;;0.94;74.18
75290;BME280;63883;48.996;20.804;2023-02-15T16:03:49;97759.91;;;0.74;75.84